sensor_id;sensor_type;location;lat;lon;timestamp;temperature;humidity
21602;DHT22;10963;50.934;4.668;2024-01-10T00:02:19;-3.00;99.90
21602;DHT22;10963;50.934;4.668;2024-01-10T00:04:47;-3.10;99.90
21602;DHT22;10963;50.934;4.668;2024-01-10T00:07:12;-3.10;99.90
21602;DHT22;10963;50.934;4.668;2024-01-10T00:09:38;-3.00;99.90
21602;DHT22;10963;50.934;4.668;2024-01-10T00:12:04;-3.10;99.90
21602;DHT22;10963;50.934;4.668;2024-01-10T00:14:30;-3.20;99.90
21602;DHT22;10963;50.934;4.668;2024-01-10T00:16:55;-3.20;99.90
21602;DHT22;10963;50.934;4.668;2024-01-10T00:19:26;-3.20;99.90
21602;DHT22;10963;50.934;4.668;2024-01-10T00:21:52;-3.20;99.90
21602;DHT22;10963;50.934;4.668;2024-01-10T00:24:20;-3.20;99.90
21602;DHT22;10963;50.934;4.668;2024-01-10T00:26:45;-3.20;99.90
21602;DHT22;10963;50.934;4.668;2024-01-10T00:29:13;-3.30;99.90
21602;DHT22;10963;50.934;4.668;2024-01-10T00:31:41;-3.30;99.90
21602;DHT22;10963;50.934;4.668;2024-01-10T00:34:07;-3.20;99.90
21602;DHT22;10963;50.934;4.668;2024-01-10T00:36:34;-3.20;99.90
21602;DHT22;10963;50.934;4.668;2024-01-10T00:39:02;-3.30;99.90
21602;DHT22;10963;50.934;4.668;2024-01-10T00:41:28;-3.30;99.90
21602;DHT22;10963;50.934;4.668;2024-01-10T00:43:56;-3.20;99.90
21602;DHT22;10963;50.934;4.668;2024-01-10T00:46:21;-3.20;99.90
21602;DHT22;10963;50.934;4.668;2024-01-10T00:48:50;-3.20;99.90
21602;DHT22;10963;50.934;4.668;2024-01-10T00:51:17;-3.30;99.90
21602;DHT22;10963;50.934;4.668;2024-01-10T00:53:43;-3.30;99.90
21602;DHT22;10963;50.934;4.668;2024-01-10T00:56:13;-3.30;99.90
21602;DHT22;10963;50.934;4.668;2024-01-10T00:58:39;-3.40;99.90
21602;DHT22;10963;50.934;4.668;2024-01-10T01:01:05;-3.30;99.90
21602;DHT22;10963;50.934;4.668;2024-01-10T01:03:31;-3.30;99.90
21602;DHT22;10963;50.934;4.668;2024-01-10T01:05:56;-3.40;99.90
21602;DHT22;10963;50.934;4.668;2024-01-10T01:08:22;-3.30;99.90
21602;DHT22;10963;50.934;4.668;2024-01-10T01:10:48;-3.40;99.90
21602;DHT22;10963;50.934;4.668;2024-01-10T01:13:14;-3.40;99.90
21602;DHT22;10963;50.934;4.668;2024-01-10T01:15:39;-3.40;99.90
21602;DHT22;10963;50.934;4.668;2024-01-10T01:18:11;-3.40;99.90
21602;DHT22;10963;50.934;4.668;2024-01-10T01:20:38;-3.30;99.90
21602;DHT22;10963;50.934;4.668;2024-01-10T01:23:04;-3.30;99.90
21602;DHT22;10963;50.934;4.668;2024-01-10T01:25:32;-3.40;99.90
21602;DHT22;10963;50.934;4.668;2024-01-10T01:28:00;-3.40;99.90
21602;DHT22;10963;50.934;4.668;2024-01-10T01:30:28;-3.40;99.90
21602;DHT22;10963;50.934;4.668;2024-01-10T01:32:53;-3.40;99.90
21602;DHT22;10963;50.934;4.668;2024-01-10T01:35:24;-3.50;99.90
21602;DHT22;10963;50.934;4.668;2024-01-10T01:37:53;-3.50;99.90
21602;DHT22;10963;50.934;4.668;2024-01-10T01:40:21;-3.60;99.90
21602;DHT22;10963;50.934;4.668;2024-01-10T01:42:47;-3.60;99.90
21602;DHT22;10963;50.934;4.668;2024-01-10T01:45:16;-3.70;99.90
21602;DHT22;10963;50.934;4.668;2024-01-10T01:47:41;-3.80;99.90
21602;DHT22;10963;50.934;4.668;2024-01-10T01:50:08;-3.70;99.90
21602;DHT22;10963;50.934;4.668;2024-01-10T01:52:34;-3.70;99.90
21602;DHT22;10963;50.934;4.668;2024-01-10T01:55:01;-3.70;99.90
21602;DHT22;10963;50.934;4.668;2024-01-10T01:57:29;-3.70;99.90
21602;DHT22;10963;50.934;4.668;2024-01-10T01:59:58;-3.70;99.90
21602;DHT22;10963;50.934;4.668;2024-01-10T02:02:26;-3.70;99.90
21602;DHT22;10963;50.934;4.668;2024-01-10T02:04:52;-3.80;99.90
21602;DHT22;10963;50.934;4.668;2024-01-10T02:07:21;-3.80;99.90
21602;DHT22;10963;50.934;4.668;2024-01-10T02:09:47;-3.80;99.90
21602;DHT22;10963;50.934;4.668;2024-01-10T02:12:13;-3.80;99.90
21602;DHT22;10963;50.934;4.668;2024-01-10T02:14:41;-3.80;99.90
21602;DHT22;10963;50.934;4.668;2024-01-10T02:17:06;-3.80;99.90
21602;DHT22;10963;50.934;4.668;2024-01-10T02:19:35;-3.80;99.90
21602;DHT22;10963;50.934;4.668;2024-01-10T02:22:00;-3.70;99.90
21602;DHT22;10963;50.934;4.668;2024-01-10T02:24:28;-3.70;99.90
21602;DHT22;10963;50.934;4.668;2024-01-10T02:26:56;-3.70;99.90
21602;DHT22;10963;50.934;4.668;2024-01-10T02:29:24;-3.80;99.90
21602;DHT22;10963;50.934;4.668;2024-01-10T02:31:52;-3.80;99.90
21602;DHT22;10963;50.934;4.668;2024-01-10T02:34:18;-3.70;99.90
21602;DHT22;10963;50.934;4.668;2024-01-10T02:36:43;-3.80;99.90
21602;DHT22;10963;50.934;4.668;2024-01-10T02:39:11;-3.80;99.90
21602;DHT22;10963;50.934;4.668;2024-01-10T02:41:37;-3.70;99.90
21602;DHT22;10963;50.934;4.668;2024-01-10T02:44:03;-3.70;99.90
21602;DHT22;10963;50.934;4.668;2024-01-10T02:46:31;-3.70;99.90
21602;DHT22;10963;50.934;4.668;2024-01-10T02:48:57;-3.80;99.90
21602;DHT22;10963;50.934;4.668;2024-01-10T02:51:26;-3.90;99.90
21602;DHT22;10963;50.934;4.668;2024-01-10T02:53:52;-3.90;99.90
21602;DHT22;10963;50.934;4.668;2024-01-10T02:56:18;-3.90;99.90
21602;DHT22;10963;50.934;4.668;2024-01-10T02:58:46;-3.90;99.90
21602;DHT22;10963;50.934;4.668;2024-01-10T03:01:16;-3.90;99.90
21602;DHT22;10963;50.934;4.668;2024-01-10T03:03:41;-3.90;99.90
21602;DHT22;10963;50.934;4.668;2024-01-10T03:06:07;-3.90;99.90
21602;DHT22;10963;50.934;4.668;2024-01-10T03:08:33;-3.90;99.90
21602;DHT22;10963;50.934;4.668;2024-01-10T03:10:58;-4.00;99.90
21602;DHT22;10963;50.934;4.668;2024-01-10T03:13:24;-4.00;99.90
21602;DHT22;10963;50.934;4.668;2024-01-10T03:15:50;-4.00;99.90
21602;DHT22;10963;50.934;4.668;2024-01-10T03:18:18;-4.00;99.90
21602;DHT22;10963;50.934;4.668;2024-01-10T03:20:43;-4.10;99.90
21602;DHT22;10963;50.934;4.668;2024-01-10T03:23:12;-4.20;99.90
21602;DHT22;10963;50.934;4.668;2024-01-10T03:25:37;-4.10;99.90
21602;DHT22;10963;50.934;4.668;2024-01-10T03:28:03;-4.10;99.90
21602;DHT22;10963;50.934;4.668;2024-01-10T03:30:31;-4.10;99.90
21602;DHT22;10963;50.934;4.668;2024-01-10T03:32:59;-4.00;99.90
21602;DHT22;10963;50.934;4.668;2024-01-10T03:35:26;-3.80;99.90
21602;DHT22;10963;50.934;4.668;2024-01-10T03:37:57;-3.90;99.90
21602;DHT22;10963;50.934;4.668;2024-01-10T03:40:26;-3.90;99.90
21602;DHT22;10963;50.934;4.668;2024-01-10T03:42:54;-3.90;99.90
21602;DHT22;10963;50.934;4.668;2024-01-10T03:45:23;-3.80;99.90
21602;DHT22;10963;50.934;4.668;2024-01-10T03:47:51;-3.90;99.90
21602;DHT22;10963;50.934;4.668;2024-01-10T03:50:22;-3.90;99.90
21602;DHT22;10963;50.934;4.668;2024-01-10T03:52:49;-4.00;99.90
21602;DHT22;10963;50.934;4.668;2024-01-10T03:55:14;-4.00;99.90
21602;DHT22;10963;50.934;4.668;2024-01-10T03:57:43;-4.00;99.90
21602;DHT22;10963;50.934;4.668;2024-01-10T04:00:09;-4.00;99.90
21602;DHT22;10963;50.934;4.668;2024-01-10T04:02:40;-4.10;99.90
21602;DHT22;10963;50.934;4.668;2024-01-10T04:05:09;-4.10;99.90
21602;DHT22;10963;50.934;4.668;2024-01-10T04:07:40;-4.10;99.90
21602;DHT22;10963;50.934;4.668;2024-01-10T04:10:08;-4.20;99.90
21602;DHT22;10963;50.934;4.668;2024-01-10T04:12:38;-4.20;99.90
21602;DHT22;10963;50.934;4.668;2024-01-10T04:15:05;-4.20;99.90
21602;DHT22;10963;50.934;4.668;2024-01-10T04:17:31;-4.30;99.90
21602;DHT22;10963;50.934;4.668;2024-01-10T04:19:57;-4.20;99.90
21602;DHT22;10963;50.934;4.668;2024-01-10T04:22:28;-4.20;99.90
21602;DHT22;10963;50.934;4.668;2024-01-10T04:25:00;-4.10;99.90
21602;DHT22;10963;50.934;4.668;2024-01-10T04:27:26;-4.20;99.90
21602;DHT22;10963;50.934;4.668;2024-01-10T04:29:55;-4.30;99.90
21602;DHT22;10963;50.934;4.668;2024-01-10T04:32:21;-4.40;99.90
21602;DHT22;10963;50.934;4.668;2024-01-10T04:34:49;-4.30;99.90
21602;DHT22;10963;50.934;4.668;2024-01-10T04:37:18;-4.30;99.90
21602;DHT22;10963;50.934;4.668;2024-01-10T04:39:43;-4.20;99.90
21602;DHT22;10963;50.934;4.668;2024-01-10T04:42:12;-4.30;99.90
21602;DHT22;10963;50.934;4.668;2024-01-10T04:44:40;-4.30;99.90
21602;DHT22;10963;50.934;4.668;2024-01-10T04:47:08;-4.40;99.90
21602;DHT22;10963;50.934;4.668;2024-01-10T04:49:36;-4.20;99.90
21602;DHT22;10963;50.934;4.668;2024-01-10T04:52:05;-4.40;99.90
21602;DHT22;10963;50.934;4.668;2024-01-10T04:54:36;-4.40;99.90
21602;DHT22;10963;50.934;4.668;2024-01-10T04:57:02;-4.40;99.90
21602;DHT22;10963;50.934;4.668;2024-01-10T04:59:29;-4.30;99.90
21602;DHT22;10963;50.934;4.668;2024-01-10T05:01:58;-4.30;99.90
21602;DHT22;10963;50.934;4.668;2024-01-10T05:04:23;-4.30;99.90
21602;DHT22;10963;50.934;4.668;2024-01-10T05:06:51;-4.30;99.90
21602;DHT22;10963;50.934;4.668;2024-01-10T05:09:17;-4.30;99.90
21602;DHT22;10963;50.934;4.668;2024-01-10T05:11:44;-4.40;99.90
21602;DHT22;10963;50.934;4.668;2024-01-10T05:14:16;-4.50;99.90
21602;DHT22;10963;50.934;4.668;2024-01-10T05:16:44;-4.50;99.90
21602;DHT22;10963;50.934;4.668;2024-01-10T05:19:09;-4.50;99.90
21602;DHT22;10963;50.934;4.668;2024-01-10T05:21:35;-4.40;99.90
21602;DHT22;10963;50.934;4.668;2024-01-10T05:24:01;-4.40;99.90
21602;DHT22;10963;50.934;4.668;2024-01-10T05:26:26;-4.40;99.90
21602;DHT22;10963;50.934;4.668;2024-01-10T05:28:52;-4.50;99.90
21602;DHT22;10963;50.934;4.668;2024-01-10T05:31:18;-4.30;99.90
21602;DHT22;10963;50.934;4.668;2024-01-10T05:33:46;-4.40;99.90
21602;DHT22;10963;50.934;4.668;2024-01-10T05:36:12;-4.50;99.90
21602;DHT22;10963;50.934;4.668;2024-01-10T05:38:40;-4.50;99.90
21602;DHT22;10963;50.934;4.668;2024-01-10T05:41:13;-4.60;99.90
21602;DHT22;10963;50.934;4.668;2024-01-10T05:43:40;-4.30;99.90
21602;DHT22;10963;50.934;4.668;2024-01-10T05:46:07;-4.10;99.90
21602;DHT22;10963;50.934;4.668;2024-01-10T05:48:35;-3.80;99.90
21602;DHT22;10963;50.934;4.668;2024-01-10T05:51:03;-4.10;99.90
21602;DHT22;10963;50.934;4.668;2024-01-10T05:53:31;-4.30;99.90
21602;DHT22;10963;50.934;4.668;2024-01-10T05:55:58;-4.50;99.90
21602;DHT22;10963;50.934;4.668;2024-01-10T05:58:24;-4.50;99.90
21602;DHT22;10963;50.934;4.668;2024-01-10T06:00:55;-4.60;99.90
21602;DHT22;10963;50.934;4.668;2024-01-10T06:03:20;-4.60;99.90
21602;DHT22;10963;50.934;4.668;2024-01-10T06:05:50;-4.60;99.90
21602;DHT22;10963;50.934;4.668;2024-01-10T06:08:18;-4.30;99.90
21602;DHT22;10963;50.934;4.668;2024-01-10T06:10:43;-4.30;99.90
21602;DHT22;10963;50.934;4.668;2024-01-10T06:13:09;-4.20;99.90
21602;DHT22;10963;50.934;4.668;2024-01-10T06:15:35;-4.00;99.90
21602;DHT22;10963;50.934;4.668;2024-01-10T06:18:01;-4.20;99.90
21602;DHT22;10963;50.934;4.668;2024-01-10T06:20:26;-4.30;99.90
21602;DHT22;10963;50.934;4.668;2024-01-10T06:22:55;-4.30;99.90
21602;DHT22;10963;50.934;4.668;2024-01-10T06:25:26;-4.30;99.90
21602;DHT22;10963;50.934;4.668;2024-01-10T06:27:53;-4.30;99.90
21602;DHT22;10963;50.934;4.668;2024-01-10T06:30:21;-4.40;99.90
21602;DHT22;10963;50.934;4.668;2024-01-10T06:32:49;-4.50;99.90
21602;DHT22;10963;50.934;4.668;2024-01-10T06:35:15;-4.30;99.90
21602;DHT22;10963;50.934;4.668;2024-01-10T06:37:40;-4.20;99.90
21602;DHT22;10963;50.934;4.668;2024-01-10T06:40:10;-4.30;99.90
21602;DHT22;10963;50.934;4.668;2024-01-10T06:42:35;-4.30;99.90
21602;DHT22;10963;50.934;4.668;2024-01-10T06:45:03;-4.30;99.90
21602;DHT22;10963;50.934;4.668;2024-01-10T06:47:31;-4.40;99.90
21602;DHT22;10963;50.934;4.668;2024-01-10T06:49:59;-4.50;99.90
21602;DHT22;10963;50.934;4.668;2024-01-10T06:52:25;-4.50;99.90
21602;DHT22;10963;50.934;4.668;2024-01-10T06:54:53;-4.60;99.90
21602;DHT22;10963;50.934;4.668;2024-01-10T06:57:20;-4.60;99.90
21602;DHT22;10963;50.934;4.668;2024-01-10T06:59:46;-4.50;99.90
21602;DHT22;10963;50.934;4.668;2024-01-10T07:02:14;-4.60;99.90
21602;DHT22;10963;50.934;4.668;2024-01-10T07:04:40;-4.60;99.90
21602;DHT22;10963;50.934;4.668;2024-01-10T07:07:06;-4.70;99.90
21602;DHT22;10963;50.934;4.668;2024-01-10T07:09:34;-4.70;99.90
21602;DHT22;10963;50.934;4.668;2024-01-10T07:11:59;-4.60;99.90
21602;DHT22;10963;50.934;4.668;2024-01-10T07:14:27;-4.60;99.90
21602;DHT22;10963;50.934;4.668;2024-01-10T07:16:55;-4.60;99.90
21602;DHT22;10963;50.934;4.668;2024-01-10T07:19:22;-4.60;99.90
21602;DHT22;10963;50.934;4.668;2024-01-10T07:21:49;-4.70;99.90
21602;DHT22;10963;50.934;4.668;2024-01-10T07:24:17;-4.70;99.90
21602;DHT22;10963;50.934;4.668;2024-01-10T07:26:46;-4.60;99.90
21602;DHT22;10963;50.934;4.668;2024-01-10T07:29:11;-4.50;99.90
21602;DHT22;10963;50.934;4.668;2024-01-10T07:31:37;-4.50;99.90
21602;DHT22;10963;50.934;4.668;2024-01-10T07:34:03;-4.50;99.90
21602;DHT22;10963;50.934;4.668;2024-01-10T07:36:41;-4.50;99.90
21602;DHT22;10963;50.934;4.668;2024-01-10T07:39:08;-4.40;99.90
21602;DHT22;10963;50.934;4.668;2024-01-10T07:41:33;-4.50;99.90
21602;DHT22;10963;50.934;4.668;2024-01-10T07:43:59;-4.60;99.90
21602;DHT22;10963;50.934;4.668;2024-01-10T07:46:27;-4.60;99.90
21602;DHT22;10963;50.934;4.668;2024-01-10T07:48:53;-4.40;99.90
21602;DHT22;10963;50.934;4.668;2024-01-10T07:51:21;-4.50;99.90
21602;DHT22;10963;50.934;4.668;2024-01-10T07:53:49;-4.40;99.90
21602;DHT22;10963;50.934;4.668;2024-01-10T07:56:15;-4.50;99.90
21602;DHT22;10963;50.934;4.668;2024-01-10T07:58:47;-4.50;99.90
21602;DHT22;10963;50.934;4.668;2024-01-10T08:01:17;-4.50;99.90
21602;DHT22;10963;50.934;4.668;2024-01-10T08:03:48;-4.50;99.90
21602;DHT22;10963;50.934;4.668;2024-01-10T08:06:14;-4.50;99.90
21602;DHT22;10963;50.934;4.668;2024-01-10T08:08:44;-4.60;99.90
21602;DHT22;10963;50.934;4.668;2024-01-10T08:11:10;-4.60;99.90
21602;DHT22;10963;50.934;4.668;2024-01-10T08:13:38;-4.60;99.90
21602;DHT22;10963;50.934;4.668;2024-01-10T08:16:06;-4.60;99.90
21602;DHT22;10963;50.934;4.668;2024-01-10T08:18:34;-4.40;99.90
21602;DHT22;10963;50.934;4.668;2024-01-10T08:21:00;-4.40;99.90
21602;DHT22;10963;50.934;4.668;2024-01-10T08:23:29;-4.40;99.90
21602;DHT22;10963;50.934;4.668;2024-01-10T08:25:55;-4.40;99.90
21602;DHT22;10963;50.934;4.668;2024-01-10T08:28:24;-4.40;99.90
21602;DHT22;10963;50.934;4.668;2024-01-10T08:30:51;-4.40;99.90
21602;DHT22;10963;50.934;4.668;2024-01-10T08:33:17;-4.40;99.90
21602;DHT22;10963;50.934;4.668;2024-01-10T08:35:43;-4.30;99.90
21602;DHT22;10963;50.934;4.668;2024-01-10T08:38:09;-4.20;99.90
21602;DHT22;10963;50.934;4.668;2024-01-10T08:40:34;-4.10;99.90
21602;DHT22;10963;50.934;4.668;2024-01-10T08:43:00;-4.00;99.90
21602;DHT22;10963;50.934;4.668;2024-01-10T08:45:26;-4.00;99.90
21602;DHT22;10963;50.934;4.668;2024-01-10T08:47:55;-3.90;99.90
21602;DHT22;10963;50.934;4.668;2024-01-10T08:50:20;-4.00;99.90
21602;DHT22;10963;50.934;4.668;2024-01-10T08:52:47;-3.80;99.90
21602;DHT22;10963;50.934;4.668;2024-01-10T08:55:13;-3.80;99.90
21602;DHT22;10963;50.934;4.668;2024-01-10T08:57:39;-3.90;99.90
21602;DHT22;10963;50.934;4.668;2024-01-10T09:00:05;-3.80;99.90
21602;DHT22;10963;50.934;4.668;2024-01-10T09:02:32;-3.80;99.90
21602;DHT22;10963;50.934;4.668;2024-01-10T09:04:58;-3.70;99.90
21602;DHT22;10963;50.934;4.668;2024-01-10T09:07:24;-3.70;99.90
21602;DHT22;10963;50.934;4.668;2024-01-10T09:09:52;-3.60;99.90
21602;DHT22;10963;50.934;4.668;2024-01-10T09:12:18;-3.50;99.90
21602;DHT22;10963;50.934;4.668;2024-01-10T09:14:44;-3.50;99.90
21602;DHT22;10963;50.934;4.668;2024-01-10T09:17:09;-3.60;99.90
21602;DHT22;10963;50.934;4.668;2024-01-10T09:19:35;-3.50;99.90
21602;DHT22;10963;50.934;4.668;2024-01-10T09:22:03;-3.40;99.90
21602;DHT22;10963;50.934;4.668;2024-01-10T09:24:34;-3.30;99.90
21602;DHT22;10963;50.934;4.668;2024-01-10T09:27:00;-3.30;99.90
21602;DHT22;10963;50.934;4.668;2024-01-10T09:29:27;-3.20;99.90
21602;DHT22;10963;50.934;4.668;2024-01-10T09:32:02;-3.10;99.90
21602;DHT22;10963;50.934;4.668;2024-01-10T09:34:27;-3.00;99.90
21602;DHT22;10963;50.934;4.668;2024-01-10T09:36:58;-3.00;99.90
21602;DHT22;10963;50.934;4.668;2024-01-10T09:39:24;-3.10;99.90
21602;DHT22;10963;50.934;4.668;2024-01-10T09:41:50;-3.10;99.90
21602;DHT22;10963;50.934;4.668;2024-01-10T09:44:20;-3.10;99.90
21602;DHT22;10963;50.934;4.668;2024-01-10T09:46:51;-3.00;99.90
21602;DHT22;10963;50.934;4.668;2024-01-10T09:49:18;-2.90;99.90
21602;DHT22;10963;50.934;4.668;2024-01-10T09:51:48;-2.80;99.90
21602;DHT22;10963;50.934;4.668;2024-01-10T09:54:15;-2.60;99.90
21602;DHT22;10963;50.934;4.668;2024-01-10T09:56:47;-2.40;99.90
21602;DHT22;10963;50.934;4.668;2024-01-10T09:59:15;-2.40;99.90
21602;DHT22;10963;50.934;4.668;2024-01-10T10:01:42;-2.30;99.90
21602;DHT22;10963;50.934;4.668;2024-01-10T10:04:12;-2.30;99.90
21602;DHT22;10963;50.934;4.668;2024-01-10T10:06:38;-2.20;99.90
21602;DHT22;10963;50.934;4.668;2024-01-10T10:09:04;-2.20;99.90
21602;DHT22;10963;50.934;4.668;2024-01-10T10:11:34;-2.20;99.90
21602;DHT22;10963;50.934;4.668;2024-01-10T10:14:29;-2.20;99.90
21602;DHT22;10963;50.934;4.668;2024-01-10T10:16:56;-2.20;99.90
21602;DHT22;10963;50.934;4.668;2024-01-10T10:19:27;-2.20;99.90
21602;DHT22;10963;50.934;4.668;2024-01-10T10:21:53;-2.20;99.90
21602;DHT22;10963;50.934;4.668;2024-01-10T10:24:33;-2.10;99.90
21602;DHT22;10963;50.934;4.668;2024-01-10T10:26:59;-2.10;99.90
21602;DHT22;10963;50.934;4.668;2024-01-10T10:29:28;-1.90;99.90
21602;DHT22;10963;50.934;4.668;2024-01-10T10:31:57;-1.80;99.90
21602;DHT22;10963;50.934;4.668;2024-01-10T10:34:23;-1.60;99.90
21602;DHT22;10963;50.934;4.668;2024-01-10T10:36:49;-1.60;99.90
21602;DHT22;10963;50.934;4.668;2024-01-10T10:39:18;-1.70;99.90
21602;DHT22;10963;50.934;4.668;2024-01-10T10:41:47;-1.60;99.90
21602;DHT22;10963;50.934;4.668;2024-01-10T10:44:18;-1.50;99.90
21602;DHT22;10963;50.934;4.668;2024-01-10T10:46:53;-1.40;99.90
21602;DHT22;10963;50.934;4.668;2024-01-10T10:49:28;-1.50;99.90
21602;DHT22;10963;50.934;4.668;2024-01-10T10:51:59;-1.40;99.90
21602;DHT22;10963;50.934;4.668;2024-01-10T10:54:28;-1.30;99.90
21602;DHT22;10963;50.934;4.668;2024-01-10T10:56:58;-1.20;99.90
21602;DHT22;10963;50.934;4.668;2024-01-10T10:59:29;-1.20;99.90
21602;DHT22;10963;50.934;4.668;2024-01-10T11:01:55;-1.10;99.90
21602;DHT22;10963;50.934;4.668;2024-01-10T11:04:21;-0.90;99.90
21602;DHT22;10963;50.934;4.668;2024-01-10T11:06:50;-1.00;99.90
21602;DHT22;10963;50.934;4.668;2024-01-10T11:09:18;-0.90;99.90
21602;DHT22;10963;50.934;4.668;2024-01-10T11:25:21;-0.60;99.90
21602;DHT22;10963;50.934;4.668;2024-01-10T11:27:53;-0.60;99.90
21602;DHT22;10963;50.934;4.668;2024-01-10T11:30:36;-0.50;99.90
21602;DHT22;10963;50.934;4.668;2024-01-10T11:34:02;-0.40;99.90
21602;DHT22;10963;50.934;4.668;2024-01-10T11:41:31;-0.40;99.90
21602;DHT22;10963;50.934;4.668;2024-01-10T11:46:42;-0.20;99.90
21602;DHT22;10963;50.934;4.668;2024-01-10T11:49:09;-0.20;99.90
21602;DHT22;10963;50.934;4.668;2024-01-10T11:51:38;-0.20;99.90
21602;DHT22;10963;50.934;4.668;2024-01-10T11:54:04;-0.20;99.90
21602;DHT22;10963;50.934;4.668;2024-01-10T11:56:41;-0.10;99.90
21602;DHT22;10963;50.934;4.668;2024-01-10T11:59:11;0.00;99.90
21602;DHT22;10963;50.934;4.668;2024-01-10T12:01:40;-0.10;99.90
21602;DHT22;10963;50.934;4.668;2024-01-10T12:04:06;0.00;99.90
21602;DHT22;10963;50.934;4.668;2024-01-10T12:06:34;0.00;99.90
21602;DHT22;10963;50.934;4.668;2024-01-10T12:09:00;0.00;99.90
21602;DHT22;10963;50.934;4.668;2024-01-10T12:11:34;0.00;99.90
21602;DHT22;10963;50.934;4.668;2024-01-10T12:14:01;0.10;99.90
21602;DHT22;10963;50.934;4.668;2024-01-10T12:16:32;0.00;99.90
21602;DHT22;10963;50.934;4.668;2024-01-10T12:18:58;0.20;99.90
21602;DHT22;10963;50.934;4.668;2024-01-10T12:21:23;0.20;99.90
21602;DHT22;10963;50.934;4.668;2024-01-10T12:23:52;0.10;99.90
21602;DHT22;10963;50.934;4.668;2024-01-10T12:26:21;0.10;99.90
21602;DHT22;10963;50.934;4.668;2024-01-10T12:28:59;0.10;99.90
21602;DHT22;10963;50.934;4.668;2024-01-10T12:31:31;0.10;99.90
21602;DHT22;10963;50.934;4.668;2024-01-10T12:33:57;0.30;99.90
21602;DHT22;10963;50.934;4.668;2024-01-10T12:36:29;0.30;99.90
21602;DHT22;10963;50.934;4.668;2024-01-10T12:38:57;0.40;99.90
21602;DHT22;10963;50.934;4.668;2024-01-10T12:41:22;0.50;99.90
21602;DHT22;10963;50.934;4.668;2024-01-10T12:43:58;0.60;99.90
21602;DHT22;10963;50.934;4.668;2024-01-10T12:46:25;0.60;99.90
21602;DHT22;10963;50.934;4.668;2024-01-10T12:49:06;0.70;99.90
21602;DHT22;10963;50.934;4.668;2024-01-10T12:51:34;0.80;99.90
21602;DHT22;10963;50.934;4.668;2024-01-10T12:54:02;0.90;99.90
21602;DHT22;10963;50.934;4.668;2024-01-10T12:56:29;0.90;99.90
21602;DHT22;10963;50.934;4.668;2024-01-10T12:58:58;1.00;99.90
21602;DHT22;10963;50.934;4.668;2024-01-10T13:01:24;0.90;99.90
21602;DHT22;10963;50.934;4.668;2024-01-10T13:03:52;1.10;99.90
21602;DHT22;10963;50.934;4.668;2024-01-10T13:06:21;1.10;99.90
21602;DHT22;10963;50.934;4.668;2024-01-10T13:08:50;1.30;99.90
21602;DHT22;10963;50.934;4.668;2024-01-10T13:11:16;1.30;99.90
21602;DHT22;10963;50.934;4.668;2024-01-10T13:13:41;1.30;99.90
21602;DHT22;10963;50.934;4.668;2024-01-10T13:16:08;1.50;99.90
21602;DHT22;10963;50.934;4.668;2024-01-10T13:18:38;1.70;99.90
21602;DHT22;10963;50.934;4.668;2024-01-10T13:21:07;1.50;99.90
21602;DHT22;10963;50.934;4.668;2024-01-10T13:23:35;1.50;99.90
21602;DHT22;10963;50.934;4.668;2024-01-10T13:26:04;1.60;99.90
21602;DHT22;10963;50.934;4.668;2024-01-10T13:28:29;1.70;99.90
21602;DHT22;10963;50.934;4.668;2024-01-10T13:30:58;1.70;99.90
21602;DHT22;10963;50.934;4.668;2024-01-10T13:33:26;1.70;99.90
21602;DHT22;10963;50.934;4.668;2024-01-10T13:35:54;1.80;99.90
21602;DHT22;10963;50.934;4.668;2024-01-10T13:38:19;1.80;99.90
21602;DHT22;10963;50.934;4.668;2024-01-10T13:40:45;1.90;99.90
21602;DHT22;10963;50.934;4.668;2024-01-10T13:43:11;1.90;99.90
21602;DHT22;10963;50.934;4.668;2024-01-10T13:45:41;1.80;99.90
21602;DHT22;10963;50.934;4.668;2024-01-10T13:48:08;1.80;99.90
21602;DHT22;10963;50.934;4.668;2024-01-10T13:50:35;1.70;99.90
21602;DHT22;10963;50.934;4.668;2024-01-10T13:53:01;1.70;99.90
21602;DHT22;10963;50.934;4.668;2024-01-10T13:55:29;1.60;99.90
21602;DHT22;10963;50.934;4.668;2024-01-10T13:58:00;1.60;99.90
21602;DHT22;10963;50.934;4.668;2024-01-10T14:00:26;1.60;99.90
21602;DHT22;10963;50.934;4.668;2024-01-10T14:02:52;1.70;99.90
21602;DHT22;10963;50.934;4.668;2024-01-10T14:05:27;1.80;99.90
21602;DHT22;10963;50.934;4.668;2024-01-10T14:07:55;1.90;99.90
21602;DHT22;10963;50.934;4.668;2024-01-10T14:10:21;1.90;99.90
21602;DHT22;10963;50.934;4.668;2024-01-10T14:12:49;1.90;99.90
21602;DHT22;10963;50.934;4.668;2024-01-10T14:15:17;1.90;99.90
21602;DHT22;10963;50.934;4.668;2024-01-10T14:17:45;1.80;99.90
21602;DHT22;10963;50.934;4.668;2024-01-10T14:20:27;1.90;99.90
21602;DHT22;10963;50.934;4.668;2024-01-10T14:22:55;1.80;99.90
21602;DHT22;10963;50.934;4.668;2024-01-10T14:25:25;1.90;99.90
21602;DHT22;10963;50.934;4.668;2024-01-10T14:27:56;1.90;99.90
21602;DHT22;10963;50.934;4.668;2024-01-10T14:30:24;1.70;99.90
21602;DHT22;10963;50.934;4.668;2024-01-10T14:32:50;1.70;99.90
21602;DHT22;10963;50.934;4.668;2024-01-10T14:35:16;1.70;99.90
21602;DHT22;10963;50.934;4.668;2024-01-10T14:37:46;1.70;99.90
21602;DHT22;10963;50.934;4.668;2024-01-10T14:40:15;1.60;99.90
21602;DHT22;10963;50.934;4.668;2024-01-10T14:42:41;1.70;99.90
21602;DHT22;10963;50.934;4.668;2024-01-10T14:45:07;1.70;99.90
21602;DHT22;10963;50.934;4.668;2024-01-10T14:47:34;1.80;99.90
21602;DHT22;10963;50.934;4.668;2024-01-10T14:50:00;1.70;99.90
21602;DHT22;10963;50.934;4.668;2024-01-10T14:52:26;1.80;99.90
21602;DHT22;10963;50.934;4.668;2024-01-10T14:54:52;1.70;99.90
21602;DHT22;10963;50.934;4.668;2024-01-10T14:57:21;1.80;99.90
21602;DHT22;10963;50.934;4.668;2024-01-10T14:59:49;1.70;99.90
21602;DHT22;10963;50.934;4.668;2024-01-10T15:02:16;1.60;99.90
21602;DHT22;10963;50.934;4.668;2024-01-10T15:04:46;1.70;99.90
21602;DHT22;10963;50.934;4.668;2024-01-10T15:07:14;1.70;99.90
21602;DHT22;10963;50.934;4.668;2024-01-10T15:09:42;1.60;99.90
21602;DHT22;10963;50.934;4.668;2024-01-10T15:12:08;1.70;99.90
21602;DHT22;10963;50.934;4.668;2024-01-10T15:14:35;1.60;99.90
21602;DHT22;10963;50.934;4.668;2024-01-10T15:17:07;1.60;99.90
21602;DHT22;10963;50.934;4.668;2024-01-10T15:19:36;1.50;99.90
21602;DHT22;10963;50.934;4.668;2024-01-10T15:22:02;1.50;99.90
21602;DHT22;10963;50.934;4.668;2024-01-10T15:24:28;1.40;99.90
21602;DHT22;10963;50.934;4.668;2024-01-10T15:26:55;1.40;99.90
21602;DHT22;10963;50.934;4.668;2024-01-10T15:29:23;1.30;99.90
21602;DHT22;10963;50.934;4.668;2024-01-10T15:31:49;1.30;99.90
21602;DHT22;10963;50.934;4.668;2024-01-10T15:34:14;1.20;99.90
21602;DHT22;10963;50.934;4.668;2024-01-10T15:36:41;1.20;99.90
21602;DHT22;10963;50.934;4.668;2024-01-10T15:39:09;1.20;99.90
21602;DHT22;10963;50.934;4.668;2024-01-10T15:41:38;1.10;99.90
21602;DHT22;10963;50.934;4.668;2024-01-10T15:44:04;1.00;99.90
21602;DHT22;10963;50.934;4.668;2024-01-10T15:46:31;0.90;99.90
21602;DHT22;10963;50.934;4.668;2024-01-10T15:48:57;0.70;99.90
21602;DHT22;10963;50.934;4.668;2024-01-10T15:51:23;0.70;99.90
21602;DHT22;10963;50.934;4.668;2024-01-10T15:53:49;0.80;99.90
21602;DHT22;10963;50.934;4.668;2024-01-10T15:56:15;0.60;99.90
21602;DHT22;10963;50.934;4.668;2024-01-10T15:58:41;0.50;99.90
21602;DHT22;10963;50.934;4.668;2024-01-10T16:01:07;0.50;99.90